createdAt,value
2022-10-05T00:01:30.622Z,19.54
2022-10-05T00:04:19.807Z,19.56
2022-10-05T00:07:01.373Z,19.52
2022-10-05T00:09:32.348Z,19.39
2022-10-05T00:11:59.959Z,19.35
2022-10-05T00:14:32.482Z,19.36
2022-10-05T00:17:02.142Z,19.52
2022-10-05T00:19:38.450Z,19.44
2022-10-05T00:22:08.647Z,19.53
2022-10-05T00:24:36.138Z,19.61
2022-10-05T00:27:15.998Z,19.57
2022-10-05T00:29:44.064Z,19.49
2022-10-05T00:32:11.682Z,19.51
2022-10-05T00:34:39.916Z,19.57
2022-10-05T00:37:07.446Z,19.90
2022-10-05T00:39:38.455Z,19.87
2022-10-05T00:42:27.824Z,19.64
2022-10-05T00:45:15.612Z,19.11
2022-10-05T00:47:49.083Z,19.28
2022-10-05T00:50:52.018Z,19.35
2022-10-05T00:53:39.473Z,19.65
2022-10-05T00:56:12.972Z,19.74
2022-10-05T00:58:49.231Z,19.67
2022-10-05T01:01:44.285Z,19.28
2022-10-05T01:04:59.815Z,19.73
2022-10-05T01:07:39.396Z,19.99
2022-10-05T01:10:09.974Z,20.07
2022-10-05T01:12:49.071Z,19.88
2022-10-05T01:15:22.045Z,19.88
2022-10-05T01:18:41.728Z,19.94
2022-10-05T01:21:22.249Z,20.13
2022-10-05T01:24:08.208Z,19.96
2022-10-05T01:26:50.833Z,19.66
2022-10-05T01:29:25.429Z,19.70
2022-10-05T01:31:58.295Z,20.01
2022-10-05T01:34:57.741Z,19.83
2022-10-05T01:37:58.928Z,19.83
2022-10-05T01:40:35.505Z,19.80
2022-10-05T01:43:12.415Z,19.86
2022-10-05T01:46:00.610Z,19.89
2022-10-05T01:49:00.651Z,19.94
2022-10-05T01:51:35.202Z,20.18
2022-10-05T01:54:36.958Z,20.14
2022-10-05T01:57:33.409Z,19.99
2022-10-05T02:00:12.148Z,20.00
2022-10-05T02:02:49.082Z,20.23
2022-10-05T02:05:33.375Z,20.14
2022-10-05T02:08:08.317Z,20.24
2022-10-05T02:10:42.376Z,20.30
2022-10-05T02:13:18.703Z,20.27
2022-10-05T02:15:53.574Z,20.26
2022-10-05T02:18:30.335Z,20.38
2022-10-05T02:21:04.299Z,20.24
2022-10-05T02:23:36.381Z,20.21
2022-10-05T02:26:05.927Z,20.18
2022-10-05T02:28:47.496Z,20.46
2022-10-05T02:31:38.147Z,20.63
2022-10-05T02:34:42.369Z,20.55
2022-10-05T02:37:54.378Z,20.43
2022-10-05T02:40:53.849Z,20.40
2022-10-05T02:43:34.733Z,20.08
2022-10-05T02:46:17.668Z,19.91
2022-10-05T02:49:09.023Z,20.07
2022-10-05T02:51:58.694Z,19.97
2022-10-05T02:54:41.474Z,20.10
2022-10-05T02:57:29.169Z,20.15
2022-10-05T03:00:15.166Z,20.31
2022-10-05T03:02:55.068Z,20.26
2022-10-05T03:05:28.089Z,20.15
2022-10-05T03:08:03.493Z,19.90
2022-10-05T03:10:43.321Z,20.00
2022-10-05T03:13:40.677Z,19.88
2022-10-05T03:16:36.622Z,19.99
2022-10-05T03:19:22.337Z,20.40
2022-10-05T03:22:08.861Z,20.63
2022-10-05T03:25:46.874Z,20.45
2022-10-05T03:28:31.385Z,20.23
2022-10-05T03:31:26.662Z,20.23
2022-10-05T03:34:23.297Z,19.98
2022-10-05T03:37:08.453Z,19.72
2022-10-05T03:39:47.215Z,19.60
2022-10-05T03:42:51.372Z,20.09
2022-10-05T03:45:30.537Z,20.30
2022-10-05T03:48:56.292Z,19.89
2022-10-05T03:51:32.144Z,19.82
2022-10-05T03:54:24.669Z,20.06
2022-10-05T03:57:03.298Z,20.38
2022-10-05T03:59:38.196Z,20.29
2022-10-05T04:02:13.075Z,20.29
2022-10-05T04:04:57.592Z,20.31
2022-10-05T04:07:34.206Z,20.43
2022-10-05T04:10:12.213Z,20.47
2022-10-05T04:12:45.658Z,20.46
2022-10-05T04:15:42.599Z,20.69
2022-10-05T04:18:20.162Z,20.58
2022-10-05T04:20:52.758Z,20.68
2022-10-05T04:23:42.747Z,21.00
2022-10-05T04:26:20.458Z,20.85
2022-10-05T04:28:57.234Z,20.70
2022-10-05T04:31:57.684Z,20.57
2022-10-05T04:34:43.725Z,20.56
2022-10-05T04:37:21.783Z,20.65
2022-10-05T04:40:39.105Z,20.89
2022-10-05T04:43:13.855Z,20.94
2022-10-05T04:46:22.182Z,20.63
2022-10-05T04:49:11.118Z,20.71
2022-10-05T04:51:59.607Z,19.89
2022-10-05T04:57:50.512Z,20.71
2022-10-05T05:15:00.836Z,20.21
2022-10-05T05:19:04.811Z,20.12
2022-10-05T05:21:40.384Z,20.09
2022-10-05T05:28:56.175Z,20.87
2022-10-05T05:31:53.033Z,20.98
2022-10-05T05:35:47.994Z,20.85
2022-10-05T05:52:02.332Z,20.91
2022-10-05T06:15:00.930Z,20.62
2022-10-05T06:22:21.159Z,20.32
2022-10-05T06:25:20.472Z,20.61
2022-10-05T06:33:11.330Z,20.80
2022-10-05T06:43:30.809Z,21.23
2022-10-05T06:47:18.180Z,21.19
2022-10-05T06:51:48.773Z,20.43
2022-10-05T09:12:18.983Z,27.10
2022-10-05T09:15:26.277Z,26.64
2022-10-05T09:18:16.073Z,26.86
2022-10-05T09:21:00.628Z,26.18
2022-10-05T09:23:49.081Z,25.66
2022-10-05T09:27:10.975Z,25.69
2022-10-05T09:30:01.898Z,25.75
2022-10-05T09:33:18.940Z,26.41
2022-10-05T09:37:01.061Z,26.44
2022-10-05T09:40:19.326Z,27.49
2022-10-05T09:43:35.267Z,26.15
2022-10-05T09:46:14.264Z,26.08
2022-10-05T09:49:16.432Z,26.49
2022-10-05T09:54:21.120Z,28.27
2022-10-05T09:57:59.891Z,27.29
2022-10-05T10:07:36.519Z,26.57
2022-10-05T10:11:10.212Z,26.81
2022-10-05T10:18:46.794Z,28.11
2022-10-05T10:21:41.284Z,28.12
2022-10-05T10:25:26.766Z,26.15
2022-10-05T10:28:32.246Z,27.01
2022-10-05T10:31:32.889Z,26.17
2022-10-05T10:35:04.148Z,27.15
2022-10-05T10:37:44.465Z,28.13
2022-10-05T10:41:15.185Z,29.67
2022-10-05T10:43:55.782Z,28.88
2022-10-05T10:47:13.034Z,29.28
2022-10-05T10:50:10.027Z,28.58
2022-10-05T10:54:24.490Z,29.47
2022-10-05T10:56:41.384Z,29.05
2022-10-05T10:59:16.900Z,29.43
2022-10-05T11:01:59.877Z,29.16
2022-10-05T11:04:41.064Z,28.33
2022-10-05T11:07:58.394Z,29.30
2022-10-05T11:11:23.544Z,26.90
2022-10-05T11:14:22.214Z,28.91
2022-10-05T11:17:15.694Z,28.64
2022-10-05T11:20:09.359Z,27.49
2022-10-05T11:22:48.222Z,29.08
2022-10-05T11:25:31.092Z,28.43
2022-10-05T11:28:39.810Z,28.22
2022-10-05T11:31:39.191Z,28.42
2022-10-05T13:19:47.034Z,28.67
2022-10-05T13:22:35.343Z,28.07
2022-10-05T13:30:38.357Z,27.21
2022-10-05T17:26:11.812Z,23.56
2022-10-05T17:32:26.783Z,23.84
2022-10-05T17:38:38.122Z,23.94
2022-10-05T17:41:22.274Z,24.06
2022-10-05T17:44:13.406Z,23.96
2022-10-05T17:46:48.348Z,23.90
2022-10-05T17:50:13.517Z,24.07
2022-10-05T17:53:02.433Z,23.69
2022-10-05T17:55:45.709Z,23.74
2022-10-05T17:58:30.100Z,23.46
2022-10-05T18:01:03.800Z,23.49
2022-10-05T18:03:54.906Z,23.38
2022-10-05T18:14:43.500Z,23.28
2022-10-05T18:23:51.687Z,22.89
2022-10-05T18:27:47.743Z,22.72
2022-10-05T18:42:48.626Z,22.51
2022-10-05T18:45:49.154Z,22.51
2022-10-05T18:53:12.213Z,22.39
2022-10-05T18:56:27.002Z,22.34
2022-10-05T19:34:50.730Z,21.47
2022-10-05T19:42:44.570Z,21.33
2022-10-05T19:45:32.419Z,21.34
2022-10-05T19:49:15.020Z,21.42
